This is the latest recevied weather packets stored in our database for station/object IZ2XCK-13. If no packets are shown the sender has not sent any weather packets the latest 10 day(s).
| Time | Temp. | Humidity | Pressure | Rain* | Wind** | Luminosity | Snow |
|---|---|---|---|---|---|---|---|
| 1787772828 | 23.89° C | 74% | 1020.7 hPa | - | - | - | - |
| 1787771628 | 24.44° C | 71% | 1020.8 hPa | - | - | - | - |
| 1787770428 | 24.44° C | 70% | 1020.7 hPa | - | - | - | - |
| 1787768027 | 24.44° C | 70% | 1020.1 hPa | - | - | - | - |
| 1787766826 | 25° C | 69% | 1019.7 hPa | - | - | - | - |
| 1787765626 | 25° C | 68% | 1020 hPa | - | - | - | - |
| 1787764426 | 25° C | 68% | 1019.6 hPa | - | - | - | - |
| 1787763225 | 25.56° C | 67% | 1019.3 hPa | - | - | - | - |
| 1787762025 | 26.11° C | 65% | 1019.6 hPa | - | - | - | - |
| 1787760825 | 26.11° C | 65% | 1019.1 hPa | - | - | - | - |
| 1787759624 | 26.67° C | 63% | 1018.6 hPa | - | - | - | - |
| 1787758424 | 26.67° C | 62% | 1019.4 hPa | - | - | - | - |
| 1787757224 | 26.67° C | 62% | 1019.4 hPa | - | - | - | - |
| 1787756024 | 26.67° C | 60% | 1019.3 hPa | - | - | - | - |
| 1787754823 | 27.22° C | 57% | 1019.3 hPa | - | - | - | - |
| 1787753623 | 27.78° C | 57% | 1019.1 hPa | - | - | - | - |
| 1787752423 | 28.89° C | 53% | 1019.2 hPa | - | - | - | - |
| 1787751222 | 29.44° C | 51% | 1019.2 hPa | - | - | - | - |
| 1787750022 | 30.56° C | 51% | 1019.3 hPa | - | - | - | - |
| 1787748822 | 29.44° C | 52% | 1019.6 hPa | - | - | - | - |
| 1787747621 | 28.89° C | 55% | 1019.7 hPa | - | - | - | - |
| 1787746421 | 28.33° C | 56% | 1020 hPa | - | - | - | - |
| 1787745221 | 27.78° C | 56% | 1019.9 hPa | - | - | - | - |
| 1787744020 | 27.22° C | 58% | 1019.9 hPa | - | - | - | - |
| 1787742820 | 26.11° C | 59% | 1020.4 hPa | - | - | - | - |
* Rain since midnight (hover to see other rain measurements)
** Current wind speed in m/s (hover to see current wind gust speed)